Latest Weather Observations for Derby

IDW60801

Issued at 7:35 pm WST Wednesday 23 July 2014 (issued every 30 minutes, with the page automatically refreshed every 10 minutes)

About weather observations | Map of weather stations | Latest weather observations for WA | Other Formats
Station Details ID: 003032 Name: DERBY AERO Lat: -17.37 Lon: 123.66 Height: 6.2 m
Data from the previous 72 hours. | See also: Recent months at Derby
Date/Time
WST
Temp
°C
App
Temp
°C
Dew
Point
Rel
Hum
%
Delta-T
°C
Wind Press
QNH
hPa
Press
MSL
hPa
Rain
since 9 am
mm
Dir
 
Spd
km/h
Gust
km/h
Spd
kts
Gust
kts
23/07:30pm 24.3 25.7 15.5 58 5.3 SSW 2 6 1 3 1013.5 - 0.2
23/07:00pm 24.1 26.3 16.6 63 4.6 WNW 0 0 0 0 1013.2 1013.2 0.2
23/06:30pm 24.6 26.6 16.1 59 5.2 CALM 0 0 0 0 1012.9 - 0.2
23/06:00pm 25.9 27.6 16.2 55 6.0 W 2 7 1 4 1012.6 1012.6 0.2
23/05:30pm 26.9 26.8 15.9 51 6.7 W 11 13 6 7 1012.4 - 0.2
23/05:00pm 29.6 28.0 12.9 35 9.9 SW 13 19 7 10 1012.1 1012.1 0.2
23/04:30pm 30.1 28.4 12.5 34 10.4 S 13 19 7 10 1011.8 - 0.2
23/04:00pm 30.6 29.7 12.5 33 10.7 S 9 15 5 8 1011.8 1011.8 0.2
23/03:30pm 30.4 28.4 11.4 31 11.0 S 13 17 7 9 1011.8 - 0.2
23/03:00pm 30.6 28.0 12.0 32 10.9 SSW 17 22 9 12 1011.8 1011.8 0.2
23/02:30pm 30.7 29.3 12.1 32 10.9 SSW 11 19 6 10 1011.9 - 0.2
23/02:00pm 30.5 29.4 11.9 31 10.9 S 9 15 5 8 1012.1 1012.1 0.2
23/01:30pm 30.2 29.1 12.1 32 10.6 SSW 9 20 5 11 1012.5 - 0.2
23/01:00pm 30.2 28.8 12.1 32 10.6 SSW 11 17 6 9 1013.0 1013.0 0.2
23/12:30pm 30.6 30.0 13.4 35 10.3 SSW 9 19 5 10 1013.4 - 0.2
23/12:00pm 29.8 27.8 12.7 35 10.1 S 15 24 8 13 1013.9 1013.9 0.2
23/11:30am 29.2 27.0 12.2 35 9.9 S 15 22 8 12 1014.5 - 0.2
23/11:00am 28.8 26.2 13.1 38 9.3 SSE 19 24 10 13 1015.2 1015.2 0.0
23/10:41am 28.6 23.4 12.9 38 9.2 NNE 32 65 17 35 1015.6 - 0.0
23/10:30am 28.7 26.4 13.0 38 9.3 SE 17 26 9 14 1015.7 - 0.0
23/10:00am 27.7 27.0 14.3 43 8.0 SSE 11 17 6 9 1016.1 1016.1 0.0
23/09:30am 25.7 25.8 15.4 53 6.2 S 9 15 5 8 1016.4 - 0.0
23/09:00am 24.5 23.7 15.1 55 5.6 SSE 13 19 7 10 1016.7 1016.7 0.0
23/08:30am 22.9 22.1 15.0 61 4.7 S 13 17 7 9 1016.8 - 0.0
23/08:00am 22.1 22.3 15.7 67 3.8 S 9 11 5 6 1016.6 1016.6 0.0
23/07:30am 20.3 21.2 16.5 79 2.3 S 7 11 4 6 1016.4 - 0.0
23/07:00am 18.7 20.8 16.3 86 1.4 CALM 0 0 0 0 1016.2 1016.2 0.0
23/06:30am 17.3 19.0 15.1 87 1.3 CALM 0 0 0 0 1015.8 - 0.0
23/06:00am 17.5 19.2 15.3 87 1.3 CALM 0 0 0 0 1015.5 1015.5 0.0
23/05:30am 17.9 19.3 15.5 86 1.4 ESE 2 6 1 3 1015.1 - 0.0
23/05:00am 18.2 19.1 16.0 87 1.3 E 6 7 3 4 1014.8 1014.8 0.0
23/04:30am 19.4 21.2 16.4 83 1.8 ESE 2 6 1 3 1014.6 - 0.0
23/04:00am 19.7 20.6 16.7 83 1.8 SSE 7 9 4 5 1014.6 1014.6 0.0
23/03:30am 19.8 20.4 16.8 83 1.8 SSE 9 9 5 5 1014.7 - 0.0
23/03:00am 20.0 21.1 17.0 83 1.8 SSE 7 9 4 5 1014.4 1014.4 0.0
23/02:30am 20.0 20.6 16.8 82 1.9 S 9 11 5 6 1014.4 - 0.0
23/02:00am 19.9 20.3 16.3 80 2.2 S 9 11 5 6 1014.4 1014.4 0.0
23/01:30am 20.2 20.6 16.2 78 2.4 S 9 11 5 6 1014.5 - 0.0
23/01:00am 20.5 21.1 15.3 72 3.1 SSE 6 7 3 4 1014.5 1014.5 0.0
23/12:30am 21.2 21.5 15.1 68 3.6 S 7 9 4 5 1014.6 - 0.0
23/12:00am 21.6 21.5 15.0 66 3.9 S 9 13 5 7 1014.9 1014.9 0.0
 
Date/Time
WST
Temp
°C
App
Temp
°C
Dew
Point
Rel
Hum
%
Delta-T
°C
Wind Press
QNH
hPa
Press
MSL
hPa
Rain
since 9 am
mm
Dir
 
Spd
km/h
Gust
km/h
Spd
kts
Gust
kts
22/11:30pm 22.0 22.3 14.6 63 4.4 S 6 7 3 4 1014.9 - 0.0
22/11:00pm 22.1 21.8 14.5 62 4.5 SW 9 9 5 5 1015.1 1015.1 0.0
22/10:30pm 21.7 21.7 14.1 62 4.4 WSW 7 9 4 5 1015.2 - 0.0
22/10:00pm 21.7 21.6 13.9 61 4.5 W 7 9 4 5 1015.2 1015.2 0.0
22/09:30pm 22.9 22.5 14.2 58 5.1 SW 9 13 5 7 1015.2 - 0.0
22/09:00pm 22.1 23.8 16.1 69 3.6 W 2 7 1 4 1015.2 1015.2 0.0
22/08:30pm 21.7 22.0 16.0 70 3.4 W 9 13 5 7 1015.4 - 0.0
22/08:00pm 22.0 23.1 16.5 71 3.3 NW 6 7 3 4 1015.0 1015.0 0.0
22/07:30pm 22.8 23.2 15.4 63 4.4 NW 7 9 4 5 1014.7 - 0.0
22/07:00pm 23.7 22.8 12.7 50 6.3 N 9 11 5 6 1014.2 1014.2 0.0
22/06:30pm 24.2 23.7 14.9 56 5.5 NNW 11 15 6 8 1013.8 - 0.0
22/06:00pm 24.8 24.3 16.0 58 5.4 NNW 13 15 7 8 1013.5 1013.5 0.0
22/05:30pm 26.7 24.4 10.4 36 9.1 NNW 13 15 7 8 1013.3 - 0.0
22/05:00pm 28.5 24.9 8.2 28 11.1 NNW 17 19 9 10 1013.1 1013.1 0.0
22/04:30pm 29.4 26.1 7.9 26 11.7 NNW 15 19 8 10 1013.1 - 0.0
22/04:00pm 30.1 26.4 7.9 25 12.1 N 17 20 9 11 1013.0 1013.0 0.0
22/03:30pm 30.2 26.6 6.8 23 12.6 NNW 15 19 8 10 1013.0 - 0.0
22/03:00pm 30.2 26.6 6.8 23 12.6 NW 15 20 8 11 1013.1 1013.1 0.0
22/02:30pm 29.8 26.7 7.1 24 12.2 NNW 13 20 7 11 1013.0 - 0.0
22/02:00pm 29.7 27.2 11.2 31 10.6 NNW 15 22 8 12 1013.2 1013.2 0.0
22/01:30pm 30.5 28.1 11.5 31 11.0 NNW 15 24 8 13 1013.3 - 0.0
22/01:00pm 29.6 28.0 12.9 35 9.9 NNW 13 22 7 12 1013.6 1013.6 0.0
22/12:30pm 29.0 27.5 13.2 37 9.4 NW 13 20 7 11 1014.2 - 0.0
22/12:00pm 28.2 27.9 16.5 49 7.3 NW 13 19 7 10 1014.7 1014.7 0.0
22/11:30am 27.7 27.1 16.6 50 6.9 NW 15 22 8 12 1015.4 - 0.0
22/11:00am 27.6 27.2 17.2 53 6.5 WNW 15 19 8 10 1016.1 1016.1 0.0
22/10:30am 26.9 27.0 16.5 53 6.4 WNW 11 19 6 10 1016.5 - 0.0
22/10:00am 26.0 25.2 15.1 51 6.6 WNW 13 17 7 9 1016.8 1016.8 0.0
22/09:30am 26.8 26.4 15.2 49 7.0 W 11 15 6 8 1017.1 - 0.0
22/09:00am 26.0 26.4 15.4 52 6.4 NW 7 9 4 5 1017.1 1017.1 0.0
22/08:30am 25.3 25.8 15.6 55 5.9 NNE 7 9 4 5 1016.6 - 0.0
22/08:00am 23.2 25.3 16.3 65 4.2 CALM 0 0 0 0 1016.6 1016.6 0.0
22/07:30am 20.8 23.4 17.4 81 2.1 CALM 0 0 0 0 1016.4 - 0.0
22/07:00am 18.2 20.2 16.0 87 1.3 CALM 0 0 0 0 1016.3 1016.3 0.0
22/06:30am 16.8 18.4 15.0 89 1.0 CALM 0 0 0 0 1016.0 - 0.0
22/06:00am 16.9 18.6 15.2 90 1.0 CALM 0 0 0 0 1015.9 1015.9 0.0
22/05:30am 17.0 18.5 14.6 86 1.4 CALM 0 6 0 3 1015.6 - 0.0
22/05:00am 17.8 19.8 16.0 89 1.1 CALM 0 0 0 0 1015.4 1015.4 0.0
22/04:30am 17.7 18.7 15.3 86 1.4 NE 4 7 2 4 1015.2 - 0.0
22/04:00am 18.7 19.5 16.3 86 1.4 NE 7 9 4 5 1015.1 1015.1 0.0
22/03:30am 18.5 19.1 15.7 84 1.7 NE 7 9 4 5 1015.1 - 0.0
22/03:00am 18.2 18.5 15.1 82 1.8 ENE 7 9 4 5 1014.9 1014.9 0.0
22/02:30am 18.4 18.9 15.5 83 1.7 ENE 7 9 4 5 1014.7 - 0.0
22/02:00am 18.5 18.2 15.4 82 1.8 NNE 11 11 6 6 1014.4 1014.4 0.0
22/01:30am 18.4 20.2 15.6 84 1.6 CALM 0 6 0 3 1014.7 - 0.0
22/01:00am 18.7 20.5 15.6 82 1.8 CALM 0 0 0 0 1014.5 1014.5 0.0
22/12:30am 18.9 20.9 15.9 83 1.8 CALM 0 0 0 0 1014.6 - 0.0
22/12:00am 19.0 20.9 15.7 81 2.0 CALM 0 0 0 0 1014.3 1014.3 0.0
 
Date/Time
WST
Temp
°C
App
Temp
°C
Dew
Point
Rel
Hum
%
Delta-T
°C
Wind Press
QNH
hPa
Press
MSL
hPa
Rain
since 9 am
mm
Dir
 
Spd
km/h
Gust
km/h
Spd
kts
Gust
kts
21/11:30pm 18.9 20.7 15.6 81 1.9 CALM 0 0 0 0 1014.3 - 0.0
21/11:00pm 19.7 21.6 15.8 78 2.3 CALM 0 0 0 0 1014.4 1014.4 0.0
21/10:30pm 19.8 20.5 15.7 77 2.4 N 6 7 3 4 1014.5 - 0.0
21/10:00pm 20.5 21.3 15.9 75 2.7 NNE 6 9 3 5 1014.6 1014.6 0.0
21/09:30pm 20.1 22.2 16.3 79 2.3 CALM 0 0 0 0 1014.7 - 0.0
21/09:00pm 20.4 22.6 16.6 79 2.3 CALM 0 0 0 0 1014.8 1014.8 0.0
21/08:30pm 21.8 23.6 16.5 72 3.2 NW 2 6 1 3 1015.0 - 0.0
21/08:00pm 22.0 22.8 16.3 70 3.4 NNW 7 7 4 4 1015.0 1015.0 0.0
21/07:30pm 22.8 23.7 16.6 68 3.8 N 7 9 4 5 1014.8 - 0.0
21/07:00pm 22.9 25.1 17.4 71 3.4 N 2 7 1 4 1014.5 1014.5 0.0
21/06:30pm 23.5 24.6 17.0 67 4.0 WNW 7 9 4 5 1014.3 - 0.0
21/06:00pm 24.4 25.7 17.1 63 4.5 NW 6 7 3 4 1013.9 1013.9 0.0
21/05:30pm 25.2 24.8 16.3 57 5.5 WNW 13 15 7 8 1013.6 - 0.0
21/05:00pm 26.9 25.7 16.2 52 6.6 WNW 17 20 9 11 1013.4 1013.4 0.0
21/04:30pm 28.4 27.1 15.7 46 7.8 WNW 17 20 9 11 1013.0 - 0.0
21/04:00pm 29.0 26.7 14.0 39 9.0 WNW 19 24 10 13 1012.9 1012.9 0.0
21/03:30pm 29.8 28.0 15.5 42 8.8 NW 19 24 10 13 1012.9 - 0.0
21/03:00pm 29.8 27.7 14.7 39 9.2 NW 19 22 10 12 1013.0 1013.0 0.0
21/02:30pm 30.1 27.5 13.8 37 9.8 NW 20 24 11 13 1013.2 - 0.0
21/02:00pm 30.0 28.1 15.3 41 9.0 NW 19 24 10 13 1013.3 1013.3 0.0
21/01:30pm 30.1 28.8 15.8 42 8.9 NW 17 20 9 11 1013.6 - 0.0
21/01:00pm 30.3 28.9 15.6 41 9.1 NW 17 20 9 11 1013.9 1013.9 0.0
21/12:30pm 29.9 28.8 16.3 43 8.5 WNW 17 24 9 13 1014.2 - 0.0
21/12:00pm 29.7 29.9 15.8 43 8.6 NNW 9 15 5 8 1015.0 1015.0 0.0
21/11:30am 28.9 29.5 15.8 45 8.1 NW 7 13 4 7 1015.5 - 0.0
21/11:00am 28.7 28.8 15.6 45 8.0 NNE 9 13 5 7 1016.3 1016.3 0.0
21/10:30am 27.3 29.3 17.8 56 6.0 S 4 9 2 5 1016.7 - 0.0
21/10:00am 27.1 29.1 17.8 56 5.9 NE 4 9 2 5 1017.2 1017.2 0.0
21/09:30am 25.8 27.5 17.2 59 5.4 NNE 4 7 2 4 1017.5 - 0.0
21/09:00am 24.4 25.8 17.4 65 4.3 W 6 9 3 5 1017.7 1017.7 0.0
21/08:30am 23.2 24.8 17.9 72 3.3 NW 6 9 3 5 1017.8 - 0.0
21/08:00am 22.3 24.0 18.5 79 2.4 NW 7 9 4 5 1017.7 1017.7 0.0
21/07:30am 21.1 23.2 18.1 83 1.9 NNW 4 7 2 4 1017.4 - 0.0
21/07:00am 19.3 20.7 17.4 89 1.2 N 6 9 3 5 1017.2 1017.2 0.0
21/06:30am 18.1 19.0 16.6 91 0.9 NE 7 9 4 5 1016.9 - 0.0
21/06:00am 17.8 18.7 16.1 90 1.0 NE 6 7 3 4 1016.7 1016.7 0.0
21/05:30am 17.8 18.5 15.6 87 1.3 NE 6 9 3 5 1016.3 - 0.0
21/05:00am 17.9 18.1 15.7 87 1.3 NE 9 11 5 6 1016.0 1016.0 0.0
21/04:30am 17.8 17.8 15.1 84 1.6 NE 9 13 5 7 1015.7 - 0.0
21/04:00am 17.8 18.5 16.1 90 1.0 N 7 9 4 5 1015.5 1015.5 0.0
21/03:30am 17.8 19.0 15.8 88 1.2 NNE 4 7 2 4 1015.2 - 0.0
21/03:00am 17.6 19.4 15.4 87 1.3 CALM 0 4 0 2 1014.9 1014.9 0.0
21/02:30am 18.0 18.6 15.4 85 1.5 S 6 6 3 3 1014.9 - 0.0
21/02:00am 18.1 19.9 15.5 85 1.5 CALM 0 0 0 0 1014.9 1014.9 0.0
21/01:30am 18.3 20.1 15.4 83 1.7 CALM 0 0 0 0 1014.8 - 0.0
21/01:00am 18.4 19.0 15.3 82 1.8 S 6 7 3 4 1014.8 1014.8 0.0
21/12:30am 19.4 20.1 15.5 78 2.3 SSE 6 7 3 4 1015.0 - 0.0
21/12:00am 18.8 19.3 15.5 81 1.9 SSE 7 9 4 5 1015.3 1015.3 0.0
 
Date/Time
WST
Temp
°C
App
Temp
°C
Dew
Point
Rel
Hum
%
Delta-T
°C
Wind Press
QNH
hPa
Press
MSL
hPa
Rain
since 9 am
mm
Dir
 
Spd
km/h
Gust
km/h
Spd
kts
Gust
kts
20/11:30pm 18.9 19.4 15.6 81 1.9 SSE 7 9 4 5 1015.3 - 0.0
20/11:00pm 19.0 20.5 15.7 81 2.0 S 2 7 1 4 1015.4 1015.4 0.0
20/10:30pm 19.8 21.8 15.9 78 2.3 CALM 0 0 0 0 1015.5 - 0.0
20/10:00pm 21.1 22.1 15.4 70 3.4 WSW 4 6 2 3 1015.6 1015.6 0.0
20/09:30pm 21.5 21.6 15.6 69 3.5 WSW 9 9 5 5 1015.7 - 0.0
20/09:00pm 20.9 21.6 16.1 74 2.9 SSW 7 7 4 4 1015.7 1015.7 0.0
20/08:30pm 22.3 22.9 15.4 65 4.1 NW 6 7 3 4 1015.6 - 0.0
20/08:00pm 22.3 22.9 15.9 67 3.8 NW 7 9 4 5 1015.6 1015.6 0.0

Other Formats:

Comma delimited format used in spreadsheet applications
http://www.bom.gov.au/fwo/IDW60801/IDW60801.95205.axf

JavaScript Object Notation format (JSON) in row-major order
http://www.bom.gov.au/fwo/IDW60801/IDW60801.95205.json